Time,TemperatureF,DewpointF,PressureIn,WindDirection,WindDirectionDegrees,WindSpeedMPH,WindSpeedGustMPH,Humidity,HourlyPrecipIn,Conditions,Clouds,dailyrainin,SolarRadiationWatts/m^2,SoftwareType,DateUTC
2013-07-08 00:15:00,63.0,59.0,29.88,ESE,121,0.0,-999.0,85,-99.99,,,0.00,0,weatherlink.com 1.10,2013-07-08 07:15:00,
2013-07-08 00:30:00,62.5,58.0,29.88,ESE,121,0.0,-999.0,85,-99.99,,,0.00,0,weatherlink.com 1.10,2013-07-08 07:30:00,
2013-07-08 00:45:00,62.0,58.0,29.88,ESE,121,0.0,-999.0,86,-99.99,,,0.00,0,weatherlink.com 1.10,2013-07-08 07:45:00,
2013-07-08 01:01:00,61.6,57.0,29.88,ESE,121,0.0,-999.0,86,-99.99,,,0.00,0,weatherlink.com 1.10,2013-07-08 08:01:00,
2013-07-08 01:16:00,61.3,57.0,29.88,ESE,121,0.0,-999.0,87,-99.99,,,0.00,0,weatherlink.com 1.10,2013-07-08 08:16:00,
2013-07-08 01:31:00,62.0,59.0,29.88,ESE,121,0.0,-999.0,89,-99.99,,,0.00,0,weatherlink.com 1.10,2013-07-08 08:31:00,
2013-07-08 01:46:00,62.8,60.0,29.88,East,90,0.0,-999.0,90,-99.99,,,0.00,0,weatherlink.com 1.10,2013-07-08 08:46:00,
2013-07-08 02:01:00,63.1,61.0,29.88,East,90,0.0,-999.0,91,-99.99,,,0.00,0,weatherlink.com 1.10,2013-07-08 09:01:00,
2013-07-08 02:16:00,63.4,61.0,29.88,East,90,0.0,-999.0,91,-99.99,,,0.00,0,weatherlink.com 1.10,2013-07-08 09:16:00,
2013-07-08 02:31:00,63.5,61.0,29.87,East,90,0.0,-999.0,91,-99.99,,,0.00,0,weatherlink.com 1.10,2013-07-08 09:31:00,
2013-07-08 02:46:00,63.3,61.0,29.87,ESE,104,0.0,-999.0,91,-99.99,,,0.00,0,weatherlink.com 1.10,2013-07-08 09:46:00,
2013-07-08 03:01:00,62.9,61.0,29.87,East,89,0.0,-999.0,92,-99.99,,,0.00,0,weatherlink.com 1.10,2013-07-08 10:01:00,
2013-07-08 03:16:00,62.8,61.0,29.87,East,89,0.0,-999.0,92,-99.99,,,0.00,0,weatherlink.com 1.10,2013-07-08 10:16:00,
2013-07-08 03:31:00,62.8,61.0,29.87,East,90,0.0,-999.0,92,-99.99,,,0.00,0,weatherlink.com 1.10,2013-07-08 10:31:00,
2013-07-08 03:46:00,62.8,61.0,29.87,East,90,0.0,-999.0,92,-99.99,,,0.00,0,weatherlink.com 1.10,2013-07-08 10:46:00,
2013-07-08 04:01:00,62.6,61.0,29.87,East,90,0.0,-999.0,93,-99.99,,,0.00,0,weatherlink.com 1.10,2013-07-08 11:01:00,
2013-07-08 04:16:00,62.3,60.0,29.88,East,90,0.0,-999.0,93,-99.99,,,0.00,0,weatherlink.com 1.10,2013-07-08 11:16:00,
2013-07-08 04:31:00,62.2,60.0,29.88,East,90,0.0,-999.0,93,-99.99,,,0.00,0,weatherlink.com 1.10,2013-07-08 11:31:00,
2013-07-08 04:46:00,62.1,60.0,29.88,SSE,158,0.0,-999.0,94,-99.99,,,0.00,0,weatherlink.com 1.10,2013-07-08 11:46:00,
2013-07-08 05:01:00,62.0,60.0,29.88,ESE,102,0.0,-999.0,94,-99.99,,,0.00,0,weatherlink.com 1.10,2013-07-08 12:01:00,
2013-07-08 05:16:00,61.6,60.0,29.88,East,95,0.0,-999.0,93,-99.99,,,0.00,0,weatherlink.com 1.10,2013-07-08 12:16:00,
2013-07-08 05:31:00,60.8,59.0,29.89,East,96,0.0,-999.0,94,-99.99,,,0.00,0,weatherlink.com 1.10,2013-07-08 12:31:00,
2013-07-08 05:46:00,60.4,59.0,29.89,East,90,0.0,-999.0,94,-99.99,,,0.00,0,weatherlink.com 1.10,2013-07-08 12:46:00,
2013-07-08 06:01:00,60.0,58.0,29.89,East,90,0.0,-999.0,94,-99.99,,,0.00,0,weatherlink.com 1.10,2013-07-08 13:01:00,
2013-07-08 06:16:00,60.0,58.0,29.89,East,90,0.0,-999.0,94,-99.99,,,0.00,14,weatherlink.com 1.10,2013-07-08 13:16:00,
2013-07-08 06:31:00,60.3,59.0,29.89,East,90,0.0,-999.0,94,-99.99,,,0.00,26,weatherlink.com 1.10,2013-07-08 13:31:00,
2013-07-08 06:46:00,59.8,58.0,29.90,ENE,78,0.0,-999.0,94,-99.99,,,0.00,40,weatherlink.com 1.10,2013-07-08 13:46:00,
2013-07-08 07:01:00,59.6,58.0,29.90,East,86,0.0,-999.0,95,-99.99,,,0.00,67,weatherlink.com 1.10,2013-07-08 14:01:00,
2013-07-08 07:16:00,60.1,59.0,29.91,East,86,0.0,-999.0,95,-99.99,,,0.00,93,weatherlink.com 1.10,2013-07-08 14:16:00,
2013-07-08 07:31:00,60.4,59.0,29.91,East,86,0.0,-999.0,95,-99.99,,,0.00,97,weatherlink.com 1.10,2013-07-08 14:31:00,
2013-07-08 07:46:00,61.0,60.0,29.92,East,86,0.0,-999.0,95,-99.99,,,0.00,113,weatherlink.com 1.10,2013-07-08 14:46:00,
2013-07-08 08:01:00,61.5,60.0,29.92,East,93,0.0,-999.0,95,-99.99,,,0.00,144,weatherlink.com 1.10,2013-07-08 15:01:00,
2013-07-08 08:16:00,62.3,61.0,29.92,East,93,0.0,-999.0,95,-99.99,,,0.00,171,weatherlink.com 1.10,2013-07-08 15:16:00,
2013-07-08 08:31:00,63.0,62.0,29.93,East,93,0.0,-999.0,95,-99.99,,,0.00,195,weatherlink.com 1.10,2013-07-08 15:31:00,
2013-07-08 08:46:00,63.9,63.0,29.93,East,93,0.0,-999.0,95,-99.99,,,0.00,457,weatherlink.com 1.10,2013-07-08 15:46:00,
2013-07-08 09:01:00,65.7,64.0,29.93,NW,314,3.0,-999.0,94,-99.99,,,0.00,550,weatherlink.com 1.10,2013-07-08 16:01:00,
2013-07-08 09:17:00,67.8,65.0,29.93,West,269,0.0,-999.0,91,-99.99,,,0.00,584,weatherlink.com 1.10,2013-07-08 16:17:00,
2013-07-08 09:32:00,69.2,65.0,29.94,SW,217,0.0,-999.0,86,-99.99,,,0.00,619,weatherlink.com 1.10,2013-07-08 16:32:00,
2013-07-08 09:47:00,70.8,65.0,29.93,WSW,241,1.0,-999.0,82,-99.99,,,0.00,650,weatherlink.com 1.10,2013-07-08 16:47:00,
2013-07-08 10:02:00,72.2,65.0,29.93,NW,310,0.0,-999.0,78,-99.99,,,0.00,693,weatherlink.com 1.10,2013-07-08 17:02:00,
2013-07-08 10:17:00,74.0,65.0,29.93,NW,309,0.0,-999.0,74,-99.99,,,0.00,726,weatherlink.com 1.10,2013-07-08 17:17:00,
2013-07-08 10:32:00,76.9,66.0,29.93,WNW,303,0.0,-999.0,69,-99.99,,,0.00,763,weatherlink.com 1.10,2013-07-08 17:32:00,
2013-07-08 10:47:00,78.6,65.0,29.92,WNW,285,0.0,-999.0,63,-99.99,,,0.00,788,weatherlink.com 1.10,2013-07-08 17:47:00,
2013-07-08 11:02:00,79.8,65.0,29.92,West,269,0.0,-999.0,61,-99.99,,,0.00,809,weatherlink.com 1.10,2013-07-08 18:02:00,
2013-07-08 11:17:00,80.8,65.0,29.92,WSW,256,3.0,-999.0,59,-99.99,,,0.00,837,weatherlink.com 1.10,2013-07-08 18:17:00,
2013-07-08 11:47:00,83.1,65.0,29.91,West,269,2.0,-999.0,55,-99.99,,,0.00,870,weatherlink.com 1.10,2013-07-08 18:47:00,
2013-07-08 12:17:00,85.9,67.0,29.90,WNW,299,0.0,-999.0,53,-99.99,,,0.00,888,weatherlink.com 1.10,2013-07-08 19:17:00,
2013-07-08 12:32:00,87.4,67.0,29.90,WSW,242,3.0,-999.0,50,-99.99,,,0.00,891,weatherlink.com 1.10,2013-07-08 19:32:00,
2013-07-08 12:47:00,88.4,66.0,29.90,West,264,4.0,-999.0,48,-99.99,,,0.00,893,weatherlink.com 1.10,2013-07-08 19:47:00,
2013-07-08 13:02:00,90.0,67.0,29.89,WSW,250,1.0,-999.0,47,-99.99,,,0.00,896,weatherlink.com 1.10,2013-07-08 20:02:00,
2013-07-08 13:18:00,91.3,68.0,29.89,WNW,282,0.0,-999.0,46,-99.99,,,0.00,893,weatherlink.com 1.10,2013-07-08 20:18:00,
2013-07-08 13:33:00,91.9,67.0,29.88,WNW,301,0.0,-999.0,44,-99.99,,,0.00,884,weatherlink.com 1.10,2013-07-08 20:33:00,
2013-07-08 14:03:00,93.8,66.0,29.88,WSW,257,1.0,-999.0,40,-99.99,,,0.00,858,weatherlink.com 1.10,2013-07-08 21:03:00,
2013-07-08 14:33:00,94.2,66.0,29.88,WNW,289,5.0,-999.0,40,-99.99,,,0.00,823,weatherlink.com 1.10,2013-07-08 21:33:00,
2013-07-08 15:03:00,95.0,66.0,29.87,West,265,9.0,-999.0,39,-99.99,,,0.00,772,weatherlink.com 1.10,2013-07-08 22:03:00,
2013-07-08 15:18:00,94.9,66.0,29.87,West,262,6.0,-999.0,39,-99.99,,,0.00,744,weatherlink.com 1.10,2013-07-08 22:18:00,
2013-07-08 15:48:00,96.1,65.0,29.86,WNW,300,0.0,-999.0,36,-99.99,,,0.00,663,weatherlink.com 1.10,2013-07-08 22:48:00,
2013-07-08 16:18:00,96.4,61.0,29.86,West,259,2.0,-999.0,31,-99.99,,,0.00,589,weatherlink.com 1.10,2013-07-08 23:18:00,
2013-07-08 16:33:00,96.4,61.0,29.86,WNW,297,1.0,-999.0,31,-99.99,,,0.00,543,weatherlink.com 1.10,2013-07-08 23:33:00,
2013-07-08 16:48:00,95.5,60.0,29.85,North,359,1.0,-999.0,31,-99.99,,,0.00,506,weatherlink.com 1.10,2013-07-08 23:48:00,
2013-07-08 17:03:00,95.3,62.0,29.85,WSW,257,1.0,-999.0,33,-99.99,,,0.00,461,weatherlink.com 1.10,2013-07-09 00:03:00,
2013-07-08 17:48:00,93.5,60.0,29.84,NW,313,3.0,-999.0,32,-99.99,,,0.00,323,weatherlink.com 1.10,2013-07-09 00:48:00,
2013-07-08 18:03:00,93.0,62.0,29.84,WSW,249,5.0,-999.0,35,-99.99,,,0.00,278,weatherlink.com 1.10,2013-07-09 01:03:00,
2013-07-08 18:18:00,91.9,60.0,29.84,WSW,245,1.0,-999.0,34,-99.99,,,0.00,218,weatherlink.com 1.10,2013-07-09 01:18:00,
2013-07-08 18:33:00,91.5,60.0,29.85,NW,321,0.0,-999.0,35,-99.99,,,0.00,155,weatherlink.com 1.10,2013-07-09 01:33:00,
2013-07-08 18:48:00,90.4,64.0,29.85,NNW,336,0.0,-999.0,41,-99.99,,,0.00,83,weatherlink.com 1.10,2013-07-09 01:48:00,
2013-07-08 19:18:00,88.4,64.0,29.86,NNW,342,0.0,-999.0,45,-99.99,,,0.00,19,weatherlink.com 1.10,2013-07-09 02:18:00,
2013-07-08 19:33:00,85.9,65.0,29.86,North,359,0.0,-999.0,49,-99.99,,,0.00,14,weatherlink.com 1.10,2013-07-09 02:33:00,
2013-07-08 19:48:00,82.8,64.0,29.87,WNW,298,1.0,-999.0,53,-99.99,,,0.00,9,weatherlink.com 1.10,2013-07-09 02:48:00,
2013-07-08 20:03:00,80.3,64.0,29.88,ESE,103,0.0,-999.0,57,-99.99,,,0.00,0,weatherlink.com 1.10,2013-07-09 03:03:00,
2013-07-08 20:49:00,76.8,63.0,29.88,SW,235,0.0,-999.0,63,-99.99,,,0.00,0,weatherlink.com 1.10,2013-07-09 03:49:00,
2013-07-08 21:04:00,76.0,63.0,29.89,SW,235,0.0,-999.0,64,-99.99,,,0.00,0,weatherlink.com 1.10,2013-07-09 04:04:00,
2013-07-08 21:19:00,75.4,63.0,29.90,SW,235,0.0,-999.0,65,-99.99,,,0.00,0,weatherlink.com 1.10,2013-07-09 04:19:00,
2013-07-08 21:34:00,74.9,62.0,29.91,SW,235,0.0,-999.0,65,-99.99,,,0.00,0,weatherlink.com 1.10,2013-07-09 04:34:00,
2013-07-08 21:49:00,74.3,63.0,29.91,SW,235,0.0,-999.0,69,-99.99,,,0.00,0,weatherlink.com 1.10,2013-07-09 04:49:00,
2013-07-08 22:04:00,73.5,62.0,29.91,SW,235,0.0,-999.0,67,-99.99,,,0.00,0,weatherlink.com 1.10,2013-07-09 05:04:00,
2013-07-08 22:19:00,72.7,62.0,29.92,SW,233,0.0,-999.0,70,-99.99,,,0.00,0,weatherlink.com 1.10,2013-07-09 05:19:00,
2013-07-08 22:34:00,72.0,63.0,29.93,SE,146,0.0,-999.0,72,-99.99,,,0.00,0,weatherlink.com 1.10,2013-07-09 05:34:00,
2013-07-08 22:49:00,71.5,62.0,29.93,SSE,159,2.0,-999.0,73,-99.99,,,0.00,0,weatherlink.com 1.10,2013-07-09 05:49:00,
2013-07-08 23:04:00,70.8,63.0,29.93,SE,129,0.0,-999.0,75,-99.99,,,0.00,0,weatherlink.com 1.10,2013-07-09 06:04:00,
2013-07-08 23:19:00,70.4,63.0,29.93,SE,129,0.0,-999.0,76,-99.99,,,0.00,0,weatherlink.com 1.10,2013-07-09 06:19:00,
2013-07-08 23:34:00,69.9,63.0,29.93,SE,129,0.0,-999.0,78,-99.99,,,0.00,0,weatherlink.com 1.10,2013-07-09 06:34:00,
2013-07-08 23:49:00,69.2,62.0,29.93,SE,129,0.0,-999.0,78,-99.99,,,0.00,0,weatherlink.com 1.10,2013-07-09 06:49:00,